sensor_id;sensor_type;location;lat;lon;timestamp;P1;durP1;ratioP1;P2;durP2;ratioP2
1062;SDS011;520;50.932;6.962;2022-09-28T00:01:57;1.40;;;1.20;;
1062;SDS011;520;50.932;6.962;2022-09-28T00:04:24;1.20;;;0.80;;
1062;SDS011;520;50.932;6.962;2022-09-28T00:06:51;2.37;;;0.90;;
1062;SDS011;520;50.932;6.962;2022-09-28T00:09:17;1.93;;;0.60;;
1062;SDS011;520;50.932;6.962;2022-09-28T00:11:44;1.00;;;0.77;;
1062;SDS011;520;50.932;6.962;2022-09-28T00:14:11;0.77;;;0.77;;
1062;SDS011;520;50.932;6.962;2022-09-28T00:16:39;1.47;;;0.80;;
1062;SDS011;520;50.932;6.962;2022-09-28T00:19:08;1.57;;;0.70;;
1062;SDS011;520;50.932;6.962;2022-09-28T00:21:38;1.07;;;0.97;;
1062;SDS011;520;50.932;6.962;2022-09-28T00:24:06;0.93;;;0.70;;
1062;SDS011;520;50.932;6.962;2022-09-28T00:26:52;0.80;;;0.80;;
1062;SDS011;520;50.932;6.962;2022-09-28T00:29:25;0.90;;;0.70;;
1062;SDS011;520;50.932;6.962;2022-09-28T00:31:54;1.83;;;0.60;;
1062;SDS011;520;50.932;6.962;2022-09-28T00:34:25;0.80;;;0.80;;
1062;SDS011;520;50.932;6.962;2022-09-28T00:36:52;1.47;;;0.70;;
1062;SDS011;520;50.932;6.962;2022-09-28T00:39:19;0.67;;;0.67;;
1062;SDS011;520;50.932;6.962;2022-09-28T00:41:46;1.00;;;0.90;;
1062;SDS011;520;50.932;6.962;2022-09-28T00:52:12;0.70;;;0.70;;
1062;SDS011;520;50.932;6.962;2022-09-28T00:54:42;0.70;;;0.63;;
1062;SDS011;520;50.932;6.962;2022-09-28T00:57:12;0.50;;;0.50;;
1062;SDS011;520;50.932;6.962;2022-09-28T00:59:40;0.73;;;0.73;;
1062;SDS011;520;50.932;6.962;2022-09-28T01:02:08;0.60;;;0.50;;
1062;SDS011;520;50.932;6.962;2022-09-28T01:04:36;0.70;;;0.60;;
1062;SDS011;520;50.932;6.962;2022-09-28T01:07:03;5.83;;;0.80;;
1062;SDS011;520;50.932;6.962;2022-09-28T01:09:32;1.00;;;0.87;;
1062;SDS011;520;50.932;6.962;2022-09-28T01:12:00;0.87;;;0.67;;
1062;SDS011;520;50.932;6.962;2022-09-28T01:14:26;1.57;;;0.80;;
1062;SDS011;520;50.932;6.962;2022-09-28T01:25:14;1.47;;;1.07;;
1062;SDS011;520;50.932;6.962;2022-09-28T01:27:53;0.77;;;0.77;;
1062;SDS011;520;50.932;6.962;2022-09-28T01:30:24;2.40;;;0.90;;
1062;SDS011;520;50.932;6.962;2022-09-28T01:33:02;0.70;;;0.70;;
1062;SDS011;520;50.932;6.962;2022-09-28T01:38:25;2.23;;;0.83;;
1062;SDS011;520;50.932;6.962;2022-09-28T01:40:57;0.60;;;0.60;;
1062;SDS011;520;50.932;6.962;2022-09-28T01:43:26;0.70;;;0.70;;
1062;SDS011;520;50.932;6.962;2022-09-28T01:45:58;0.93;;;0.80;;
1062;SDS011;520;50.932;6.962;2022-09-28T01:48:39;1.30;;;1.20;;
1062;SDS011;520;50.932;6.962;2022-09-28T01:51:28;1.10;;;0.90;;
1062;SDS011;520;50.932;6.962;2022-09-28T01:54:13;1.10;;;1.00;;
1062;SDS011;520;50.932;6.962;2022-09-28T01:56:50;2.07;;;1.10;;
1062;SDS011;520;50.932;6.962;2022-09-28T01:59:25;2.80;;;0.93;;
1062;SDS011;520;50.932;6.962;2022-09-28T02:01:58;1.17;;;0.90;;
1062;SDS011;520;50.932;6.962;2022-09-28T02:04:40;1.43;;;1.10;;
1062;SDS011;520;50.932;6.962;2022-09-28T02:07:15;2.00;;;1.00;;
1062;SDS011;520;50.932;6.962;2022-09-28T02:09:50;2.50;;;1.27;;
1062;SDS011;520;50.932;6.962;2022-09-28T02:14:52;3.30;;;1.00;;
1062;SDS011;520;50.932;6.962;2022-09-28T02:17:23;1.40;;;1.30;;
1062;SDS011;520;50.932;6.962;2022-09-28T02:19:50;2.30;;;1.00;;
1062;SDS011;520;50.932;6.962;2022-09-28T02:22:24;1.13;;;1.00;;
1062;SDS011;520;50.932;6.962;2022-09-28T02:25:02;2.70;;;1.10;;
1062;SDS011;520;50.932;6.962;2022-09-28T02:27:44;2.30;;;1.40;;
1062;SDS011;520;50.932;6.962;2022-09-28T02:30:22;2.57;;;1.33;;
1062;SDS011;520;50.932;6.962;2022-09-28T02:32:49;1.67;;;1.43;;
1062;SDS011;520;50.932;6.962;2022-09-28T02:35:19;1.70;;;1.60;;
1062;SDS011;520;50.932;6.962;2022-09-28T02:37:48;1.70;;;1.60;;
1062;SDS011;520;50.932;6.962;2022-09-28T02:40:16;1.77;;;1.67;;
1062;SDS011;520;50.932;6.962;2022-09-28T02:51:13;2.20;;;1.90;;
1062;SDS011;520;50.932;6.962;2022-09-28T02:56:40;2.40;;;2.20;;
1062;SDS011;520;50.932;6.962;2022-09-28T03:02:31;2.83;;;2.23;;
1062;SDS011;520;50.932;6.962;2022-09-28T03:05:11;2.37;;;2.17;;
1062;SDS011;520;50.932;6.962;2022-09-28T03:07:40;3.87;;;2.23;;
1062;SDS011;520;50.932;6.962;2022-09-28T03:10:27;3.10;;;2.53;;
1062;SDS011;520;50.932;6.962;2022-09-28T03:13:09;7.37;;;2.50;;
1062;SDS011;520;50.932;6.962;2022-09-28T03:15:37;4.40;;;2.70;;
1062;SDS011;520;50.932;6.962;2022-09-28T03:18:05;4.30;;;3.00;;
1062;SDS011;520;50.932;6.962;2022-09-28T03:20:32;3.80;;;2.93;;
1062;SDS011;520;50.932;6.962;2022-09-28T03:22:59;3.63;;;3.33;;
1062;SDS011;520;50.932;6.962;2022-09-28T03:25:46;4.20;;;3.30;;
1062;SDS011;520;50.932;6.962;2022-09-28T03:28:13;3.50;;;2.83;;
1062;SDS011;520;50.932;6.962;2022-09-28T03:30:39;4.83;;;3.60;;
1062;SDS011;520;50.932;6.962;2022-09-28T03:33:08;4.93;;;3.40;;
1062;SDS011;520;50.932;6.962;2022-09-28T03:35:34;4.23;;;3.90;;
1062;SDS011;520;50.932;6.962;2022-09-28T03:38:01;7.20;;;3.73;;
1062;SDS011;520;50.932;6.962;2022-09-28T03:40:28;4.00;;;3.60;;
1062;SDS011;520;50.932;6.962;2022-09-28T03:42:54;3.87;;;3.30;;
1062;SDS011;520;50.932;6.962;2022-09-28T03:45:21;4.90;;;3.80;;
1062;SDS011;520;50.932;6.962;2022-09-28T03:47:49;4.57;;;4.17;;
1062;SDS011;520;50.932;6.962;2022-09-28T03:50:16;4.17;;;3.70;;
1062;SDS011;520;50.932;6.962;2022-09-28T03:52:42;4.40;;;4.00;;
1062;SDS011;520;50.932;6.962;2022-09-28T03:55:09;4.60;;;4.10;;
1062;SDS011;520;50.932;6.962;2022-09-28T03:57:36;4.57;;;4.10;;
1062;SDS011;520;50.932;6.962;2022-09-28T04:00:03;5.17;;;4.77;;
1062;SDS011;520;50.932;6.962;2022-09-28T04:02:30;4.77;;;4.10;;
1062;SDS011;520;50.932;6.962;2022-09-28T04:04:59;5.23;;;4.60;;
1062;SDS011;520;50.932;6.962;2022-09-28T04:07:26;6.43;;;4.30;;
1062;SDS011;520;50.932;6.962;2022-09-28T04:09:56;4.80;;;4.40;;
1062;SDS011;520;50.932;6.962;2022-09-28T04:12:23;4.70;;;4.30;;
1062;SDS011;520;50.932;6.962;2022-09-28T04:14:49;5.30;;;4.70;;
1062;SDS011;520;50.932;6.962;2022-09-28T04:17:16;5.30;;;4.10;;
1062;SDS011;520;50.932;6.962;2022-09-28T04:19:43;6.03;;;5.43;;
1062;SDS011;520;50.932;6.962;2022-09-28T04:22:09;6.17;;;3.80;;
1062;SDS011;520;50.932;6.962;2022-09-28T04:24:36;6.47;;;4.60;;
1062;SDS011;520;50.932;6.962;2022-09-28T04:27:03;5.33;;;4.13;;
1062;SDS011;520;50.932;6.962;2022-09-28T04:29:48;5.10;;;3.97;;
1062;SDS011;520;50.932;6.962;2022-09-28T04:32:14;5.37;;;4.87;;
1062;SDS011;520;50.932;6.962;2022-09-28T04:34:41;4.80;;;4.40;;
1062;SDS011;520;50.932;6.962;2022-09-28T04:37:09;7.10;;;5.87;;
1062;SDS011;520;50.932;6.962;2022-09-28T04:39:36;6.40;;;5.80;;
1062;SDS011;520;50.932;6.962;2022-09-28T04:42:02;7.33;;;4.70;;
1062;SDS011;520;50.932;6.962;2022-09-28T04:44:29;5.90;;;5.30;;
1062;SDS011;520;50.932;6.962;2022-09-28T04:46:55;5.80;;;4.87;;
1062;SDS011;520;50.932;6.962;2022-09-28T04:49:24;5.40;;;4.97;;
1062;SDS011;520;50.932;6.962;2022-09-28T04:51:51;6.70;;;5.50;;
1062;SDS011;520;50.932;6.962;2022-09-28T04:54:17;6.27;;;5.73;;
1062;SDS011;520;50.932;6.962;2022-09-28T04:56:44;6.07;;;5.40;;
1062;SDS011;520;50.932;6.962;2022-09-28T04:59:11;7.83;;;5.87;;
1062;SDS011;520;50.932;6.962;2022-09-28T05:01:38;6.23;;;5.60;;
1062;SDS011;520;50.932;6.962;2022-09-28T05:04:05;5.23;;;4.83;;
1062;SDS011;520;50.932;6.962;2022-09-28T05:06:31;5.60;;;4.90;;
1062;SDS011;520;50.932;6.962;2022-09-28T05:08:58;6.63;;;5.40;;
1062;SDS011;520;50.932;6.962;2022-09-28T05:11:25;4.73;;;4.43;;
1062;SDS011;520;50.932;6.962;2022-09-28T05:13:51;5.30;;;4.70;;
1062;SDS011;520;50.932;6.962;2022-09-28T05:16:18;5.80;;;5.20;;
1062;SDS011;520;50.932;6.962;2022-09-28T05:18:45;6.90;;;5.50;;
1062;SDS011;520;50.932;6.962;2022-09-28T05:21:12;4.97;;;4.50;;
1062;SDS011;520;50.932;6.962;2022-09-28T05:23:44;5.50;;;4.70;;
1062;SDS011;520;50.932;6.962;2022-09-28T05:26:12;6.10;;;4.80;;
1062;SDS011;520;50.932;6.962;2022-09-28T05:28:39;5.40;;;4.90;;
1062;SDS011;520;50.932;6.962;2022-09-28T05:31:06;6.23;;;5.70;;
1062;SDS011;520;50.932;6.962;2022-09-28T05:33:33;4.70;;;4.30;;
1062;SDS011;520;50.932;6.962;2022-09-28T05:36:00;5.07;;;4.57;;
1062;SDS011;520;50.932;6.962;2022-09-28T05:38:27;5.60;;;5.10;;
1062;SDS011;520;50.932;6.962;2022-09-28T05:40:55;4.77;;;4.23;;
1062;SDS011;520;50.932;6.962;2022-09-28T05:43:21;5.23;;;4.73;;
1062;SDS011;520;50.932;6.962;2022-09-28T05:45:49;7.40;;;3.73;;
1062;SDS011;520;50.932;6.962;2022-09-28T05:48:20;4.23;;;3.90;;
1062;SDS011;520;50.932;6.962;2022-09-28T05:50:51;5.27;;;3.83;;
1062;SDS011;520;50.932;6.962;2022-09-28T05:53:18;5.07;;;4.07;;
1062;SDS011;520;50.932;6.962;2022-09-28T05:55:45;6.30;;;5.10;;
1062;SDS011;520;50.932;6.962;2022-09-28T05:58:12;4.90;;;3.80;;
1062;SDS011;520;50.932;6.962;2022-09-28T06:00:39;4.40;;;4.03;;
1062;SDS011;520;50.932;6.962;2022-09-28T06:03:06;4.07;;;3.77;;
1062;SDS011;520;50.932;6.962;2022-09-28T06:05:36;3.97;;;3.57;;
1062;SDS011;520;50.932;6.962;2022-09-28T06:08:04;4.33;;;3.93;;
1062;SDS011;520;50.932;6.962;2022-09-28T06:10:33;7.43;;;4.30;;
1062;SDS011;520;50.932;6.962;2022-09-28T06:13:00;4.50;;;4.10;;
1062;SDS011;520;50.932;6.962;2022-09-28T06:15:28;4.10;;;3.70;;
1062;SDS011;520;50.932;6.962;2022-09-28T06:17:57;4.97;;;3.87;;
1062;SDS011;520;50.932;6.962;2022-09-28T06:20:25;5.03;;;3.90;;
1062;SDS011;520;50.932;6.962;2022-09-28T06:22:53;4.50;;;4.10;;
1062;SDS011;520;50.932;6.962;2022-09-28T06:25:21;5.10;;;3.90;;
1062;SDS011;520;50.932;6.962;2022-09-28T06:27:58;4.53;;;4.13;;
1062;SDS011;520;50.932;6.962;2022-09-28T06:30:30;4.37;;;3.90;;
1062;SDS011;520;50.932;6.962;2022-09-28T06:32:59;4.13;;;3.70;;
1062;SDS011;520;50.932;6.962;2022-09-28T06:35:28;3.83;;;3.43;;
1062;SDS011;520;50.932;6.962;2022-09-28T06:37:56;5.93;;;4.20;;
1062;SDS011;520;50.932;6.962;2022-09-28T06:40:24;4.77;;;4.23;;
1062;SDS011;520;50.932;6.962;2022-09-28T06:45:26;4.03;;;3.70;;
1062;SDS011;520;50.932;6.962;2022-09-28T06:47:55;4.13;;;3.73;;
1062;SDS011;520;50.932;6.962;2022-09-28T06:50:24;4.07;;;3.27;;
1062;SDS011;520;50.932;6.962;2022-09-28T06:52:53;4.10;;;3.80;;
1062;SDS011;520;50.932;6.962;2022-09-28T06:55:20;4.27;;;3.93;;
1062;SDS011;520;50.932;6.962;2022-09-28T06:57:55;5.37;;;3.93;;
1062;SDS011;520;50.932;6.962;2022-09-28T07:00:24;3.70;;;3.40;;
1062;SDS011;520;50.932;6.962;2022-09-28T07:02:51;3.87;;;3.57;;
1062;SDS011;520;50.932;6.962;2022-09-28T07:05:18;3.70;;;3.40;;
1062;SDS011;520;50.932;6.962;2022-09-28T07:07:53;8.07;;;3.67;;
1062;SDS011;520;50.932;6.962;2022-09-28T07:10:21;4.10;;;3.80;;
1062;SDS011;520;50.932;6.962;2022-09-28T07:12:53;3.23;;;3.03;;
1062;SDS011;520;50.932;6.962;2022-09-28T07:15:21;3.83;;;3.40;;
1062;SDS011;520;50.932;6.962;2022-09-28T07:17:48;3.60;;;3.40;;
1062;SDS011;520;50.932;6.962;2022-09-28T07:20:25;6.37;;;4.57;;
1062;SDS011;520;50.932;6.962;2022-09-28T07:22:53;4.67;;;3.60;;
1062;SDS011;520;50.932;6.962;2022-09-28T07:25:21;3.63;;;2.97;;
1062;SDS011;520;50.932;6.962;2022-09-28T07:27:48;6.70;;;3.10;;
1062;SDS011;520;50.932;6.962;2022-09-28T07:30:15;4.33;;;3.43;;
1062;SDS011;520;50.932;6.962;2022-09-28T07:32:44;3.50;;;3.20;;
1062;SDS011;520;50.932;6.962;2022-09-28T07:35:10;4.33;;;3.63;;
1062;SDS011;520;50.932;6.962;2022-09-28T07:37:37;3.40;;;3.10;;
1062;SDS011;520;50.932;6.962;2022-09-28T07:40:05;5.80;;;2.73;;
1062;SDS011;520;50.932;6.962;2022-09-28T07:42:51;2.90;;;2.70;;
1062;SDS011;520;50.932;6.962;2022-09-28T07:45:18;6.43;;;2.90;;
1062;SDS011;520;50.932;6.962;2022-09-28T07:47:55;3.30;;;3.00;;
1062;SDS011;520;50.932;6.962;2022-09-28T07:50:21;2.77;;;2.57;;
1062;SDS011;520;50.932;6.962;2022-09-28T07:52:48;4.10;;;2.37;;
1062;SDS011;520;50.932;6.962;2022-09-28T07:55:15;2.87;;;2.67;;
1062;SDS011;520;50.932;6.962;2022-09-28T07:57:42;4.27;;;2.80;;
1062;SDS011;520;50.932;6.962;2022-09-28T08:00:13;5.33;;;2.77;;
1062;SDS011;520;50.932;6.962;2022-09-28T08:02:40;2.70;;;2.47;;
1062;SDS011;520;50.932;6.962;2022-09-28T08:05:07;3.60;;;3.30;;
1062;SDS011;520;50.932;6.962;2022-09-28T08:07:35;3.37;;;2.80;;
1062;SDS011;520;50.932;6.962;2022-09-28T08:10:03;3.20;;;2.60;;
1062;SDS011;520;50.932;6.962;2022-09-28T08:12:30;2.60;;;2.20;;
1062;SDS011;520;50.932;6.962;2022-09-28T08:14:58;4.23;;;3.00;;
1062;SDS011;520;50.932;6.962;2022-09-28T08:17:25;3.80;;;2.60;;
1062;SDS011;520;50.932;6.962;2022-09-28T08:19:52;3.77;;;2.87;;
1062;SDS011;520;50.932;6.962;2022-09-28T08:22:37;2.97;;;2.60;;
1062;SDS011;520;50.932;6.962;2022-09-28T08:25:05;3.40;;;2.83;;
1062;SDS011;520;50.932;6.962;2022-09-28T08:27:32;5.10;;;2.80;;
1062;SDS011;520;50.932;6.962;2022-09-28T08:29:59;2.83;;;2.50;;
1062;SDS011;520;50.932;6.962;2022-09-28T08:32:25;3.50;;;3.10;;
1062;SDS011;520;50.932;6.962;2022-09-28T08:34:55;3.00;;;2.80;;
1062;SDS011;520;50.932;6.962;2022-09-28T08:37:21;2.70;;;2.40;;
1062;SDS011;520;50.932;6.962;2022-09-28T08:39:48;6.77;;;2.63;;
1062;SDS011;520;50.932;6.962;2022-09-28T08:45:05;4.20;;;2.70;;
1062;SDS011;520;50.932;6.962;2022-09-28T08:47:44;3.13;;;2.87;;
1062;SDS011;520;50.932;6.962;2022-09-28T08:50:36;3.10;;;2.10;;
1062;SDS011;520;50.932;6.962;2022-09-28T08:53:20;3.40;;;1.97;;
1062;SDS011;520;50.932;6.962;2022-09-28T08:56:15;2.60;;;2.33;;
1062;SDS011;520;50.932;6.962;2022-09-28T08:58:54;3.30;;;3.00;;
1062;SDS011;520;50.932;6.962;2022-09-28T09:01:26;1.80;;;1.47;;
1062;SDS011;520;50.932;6.962;2022-09-28T09:03:57;3.67;;;2.17;;
1062;SDS011;520;50.932;6.962;2022-09-28T09:12:06;2.53;;;1.77;;
1062;SDS011;520;50.932;6.962;2022-09-28T09:17:59;2.07;;;1.70;;
1062;SDS011;520;50.932;6.962;2022-09-28T09:26:07;4.70;;;1.50;;
1062;SDS011;520;50.932;6.962;2022-09-28T09:28:56;1.60;;;1.50;;
1062;SDS011;520;50.932;6.962;2022-09-28T09:31:49;3.57;;;1.77;;
1062;SDS011;520;50.932;6.962;2022-09-28T09:43:09;3.87;;;1.83;;
1062;SDS011;520;50.932;6.962;2022-09-28T09:46:10;3.03;;;1.20;;
1062;SDS011;520;50.932;6.962;2022-09-28T09:51:14;2.97;;;2.70;;
1062;SDS011;520;50.932;6.962;2022-09-28T09:53:49;1.70;;;1.60;;
1062;SDS011;520;50.932;6.962;2022-09-28T09:59:35;3.57;;;1.50;;
1062;SDS011;520;50.932;6.962;2022-09-28T10:02:13;3.70;;;1.10;;
1062;SDS011;520;50.932;6.962;2022-09-28T10:04:51;1.60;;;1.10;;
1062;SDS011;520;50.932;6.962;2022-09-28T10:07:23;2.80;;;1.40;;
1062;SDS011;520;50.932;6.962;2022-09-28T10:13:01;4.90;;;1.07;;
1062;SDS011;520;50.932;6.962;2022-09-28T10:15:30;2.80;;;1.23;;
1062;SDS011;520;50.932;6.962;2022-09-28T10:18:02;3.00;;;1.20;;
1062;SDS011;520;50.932;6.962;2022-09-28T10:20:38;3.47;;;1.27;;
1062;SDS011;520;50.932;6.962;2022-09-28T10:23:21;4.47;;;1.37;;
1062;SDS011;520;50.932;6.962;2022-09-28T10:25:53;2.50;;;1.13;;
1062;SDS011;520;50.932;6.962;2022-09-28T10:28:28;3.57;;;1.00;;
1062;SDS011;520;50.932;6.962;2022-09-28T10:31:05;1.87;;;1.17;;
1062;SDS011;520;50.932;6.962;2022-09-28T10:34:02;2.30;;;1.20;;
1062;SDS011;520;50.932;6.962;2022-09-28T10:36:31;1.77;;;1.10;;
1062;SDS011;520;50.932;6.962;2022-09-28T10:39:20;1.60;;;1.50;;
1062;SDS011;520;50.932;6.962;2022-09-28T10:41:51;3.47;;;1.03;;
1062;SDS011;520;50.932;6.962;2022-09-28T10:44:18;1.30;;;1.20;;
1062;SDS011;520;50.932;6.962;2022-09-28T10:46:54;1.20;;;1.00;;
1062;SDS011;520;50.932;6.962;2022-09-28T10:49:22;1.53;;;1.10;;
1062;SDS011;520;50.932;6.962;2022-09-28T10:51:51;2.10;;;0.67;;
1062;SDS011;520;50.932;6.962;2022-09-28T10:54:23;1.10;;;1.00;;
1062;SDS011;520;50.932;6.962;2022-09-28T10:56:52;2.03;;;0.90;;
1062;SDS011;520;50.932;6.962;2022-09-28T11:02:08;0.77;;;0.77;;
1062;SDS011;520;50.932;6.962;2022-09-28T11:04:53;1.57;;;1.20;;
1062;SDS011;520;50.932;6.962;2022-09-28T11:07:23;1.40;;;0.80;;
1062;SDS011;520;50.932;6.962;2022-09-28T11:09:52;2.70;;;1.30;;
1062;SDS011;520;50.932;6.962;2022-09-28T11:12:27;2.60;;;1.20;;
1062;SDS011;520;50.932;6.962;2022-09-28T11:15:03;1.77;;;1.33;;
1062;SDS011;520;50.932;6.962;2022-09-28T11:17:33;5.83;;;1.33;;
1062;SDS011;520;50.932;6.962;2022-09-28T11:22:54;1.50;;;0.90;;
1062;SDS011;520;50.932;6.962;2022-09-28T11:25:25;2.20;;;1.00;;
1062;SDS011;520;50.932;6.962;2022-09-28T11:27:57;1.10;;;1.00;;
1062;SDS011;520;50.932;6.962;2022-09-28T11:30:27;1.13;;;0.90;;
1062;SDS011;520;50.932;6.962;2022-09-28T11:33:04;2.00;;;1.00;;
1062;SDS011;520;50.932;6.962;2022-09-28T11:35:43;1.90;;;1.13;;
1062;SDS011;520;50.932;6.962;2022-09-28T11:52:21;0.63;;;0.63;;
1062;SDS011;520;50.932;6.962;2022-09-28T11:55:04;1.67;;;0.60;;
1062;SDS011;520;50.932;6.962;2022-09-28T11:57:35;3.30;;;0.87;;
1062;SDS011;520;50.932;6.962;2022-09-28T12:00:06;1.03;;;0.90;;
1062;SDS011;520;50.932;6.962;2022-09-28T12:02:44;2.47;;;0.87;;
1062;SDS011;520;50.932;6.962;2022-09-28T12:05:22;2.67;;;0.90;;
1062;SDS011;520;50.932;6.962;2022-09-28T12:07:53;1.20;;;0.87;;
1062;SDS011;520;50.932;6.962;2022-09-28T12:13:04;2.90;;;1.00;;
1062;SDS011;520;50.932;6.962;2022-09-28T12:16:20;1.10;;;0.97;;
1062;SDS011;520;50.932;6.962;2022-09-28T12:21:36;3.13;;;1.07;;
1062;SDS011;520;50.932;6.962;2022-09-28T12:24:20;1.70;;;0.80;;
1062;SDS011;520;50.932;6.962;2022-09-28T12:26:59;1.70;;;0.73;;
1062;SDS011;520;50.932;6.962;2022-09-28T12:29:53;3.70;;;0.90;;
1062;SDS011;520;50.932;6.962;2022-09-28T12:33:06;1.07;;;1.03;;
1062;SDS011;520;50.932;6.962;2022-09-28T12:38:00;1.67;;;1.00;;
1062;SDS011;520;50.932;6.962;2022-09-28T12:40:45;2.50;;;1.50;;
1062;SDS011;520;50.932;6.962;2022-09-28T12:43:40;2.70;;;0.90;;
1062;SDS011;520;50.932;6.962;2022-09-28T12:52:00;0.90;;;0.80;;
1062;SDS011;520;50.932;6.962;2022-09-28T12:54:59;1.23;;;0.87;;
1062;SDS011;520;50.932;6.962;2022-09-28T13:00:20;4.70;;;1.70;;
1062;SDS011;520;50.932;6.962;2022-09-28T13:02:59;6.83;;;4.07;;
1062;SDS011;520;50.932;6.962;2022-09-28T13:05:37;1.57;;;1.10;;
1062;SDS011;520;50.932;6.962;2022-09-28T13:08:11;1.47;;;0.80;;
1062;SDS011;520;50.932;6.962;2022-09-28T13:10:53;2.00;;;1.07;;
1062;SDS011;520;50.932;6.962;2022-09-28T13:13:48;3.53;;;0.90;;
1062;SDS011;520;50.932;6.962;2022-09-28T13:16:54;4.40;;;1.10;;
1062;SDS011;520;50.932;6.962;2022-09-28T13:22:34;2.70;;;0.80;;
1062;SDS011;520;50.932;6.962;2022-09-28T13:25:27;1.60;;;0.97;;
1062;SDS011;520;50.932;6.962;2022-09-28T13:28:03;1.87;;;1.23;;
1062;SDS011;520;50.932;6.962;2022-09-28T13:30:31;1.00;;;1.00;;
1062;SDS011;520;50.932;6.962;2022-09-28T13:33:02;1.17;;;1.07;;
1062;SDS011;520;50.932;6.962;2022-09-28T13:35:30;1.67;;;1.33;;
1062;SDS011;520;50.932;6.962;2022-09-28T13:46:28;1.83;;;1.13;;
1062;SDS011;520;50.932;6.962;2022-09-28T13:57:28;2.30;;;1.50;;
1062;SDS011;520;50.932;6.962;2022-09-28T14:02:46;1.53;;;1.20;;
1062;SDS011;520;50.932;6.962;2022-09-28T14:05:43;2.20;;;1.40;;
1062;SDS011;520;50.932;6.962;2022-09-28T14:08:18;1.93;;;1.10;;
1062;SDS011;520;50.932;6.962;2022-09-28T14:10:56;1.97;;;1.20;;
1062;SDS011;520;50.932;6.962;2022-09-28T14:16:34;2.83;;;1.43;;
1062;SDS011;520;50.932;6.962;2022-09-28T14:30:24;5.40;;;1.27;;
1062;SDS011;520;50.932;6.962;2022-09-28T14:33:14;3.87;;;1.10;;
1062;SDS011;520;50.932;6.962;2022-09-28T14:36:03;1.80;;;1.10;;
1062;SDS011;520;50.932;6.962;2022-09-28T14:38:36;2.30;;;1.40;;
1062;SDS011;520;50.932;6.962;2022-09-28T14:41:31;5.07;;;1.30;;
1062;SDS011;520;50.932;6.962;2022-09-28T14:44:11;1.63;;;1.53;;
1062;SDS011;520;50.932;6.962;2022-09-28T14:59:21;3.10;;;1.83;;
1062;SDS011;520;50.932;6.962;2022-09-28T15:01:59;1.40;;;1.30;;
1062;SDS011;520;50.932;6.962;2022-09-28T15:04:34;1.47;;;1.33;;
1062;SDS011;520;50.932;6.962;2022-09-28T15:07:21;2.83;;;1.30;;
1062;SDS011;520;50.932;6.962;2022-09-28T15:09:54;1.13;;;1.07;;
1062;SDS011;520;50.932;6.962;2022-09-28T15:12:26;1.10;;;0.80;;
1062;SDS011;520;50.932;6.962;2022-09-28T15:14:58;3.23;;;1.30;;
1062;SDS011;520;50.932;6.962;2022-09-28T15:17:28;0.73;;;0.70;;
1062;SDS011;520;50.932;6.962;2022-09-28T15:20:01;1.73;;;1.40;;
1062;SDS011;520;50.932;6.962;2022-09-28T15:22:34;1.20;;;1.10;;
1062;SDS011;520;50.932;6.962;2022-09-28T15:25:03;1.77;;;1.20;;
1062;SDS011;520;50.932;6.962;2022-09-28T15:27:38;1.87;;;0.87;;
1062;SDS011;520;50.932;6.962;2022-09-28T15:32:54;1.03;;;0.93;;
1062;SDS011;520;50.932;6.962;2022-09-28T15:35:41;2.00;;;0.80;;
1062;SDS011;520;50.932;6.962;2022-09-28T15:38:27;1.00;;;0.90;;
1062;SDS011;520;50.932;6.962;2022-09-28T15:40:56;2.10;;;0.90;;
1062;SDS011;520;50.932;6.962;2022-09-28T15:43:26;2.63;;;1.70;;
1062;SDS011;520;50.932;6.962;2022-09-28T15:46:15;1.00;;;0.80;;
1062;SDS011;520;50.932;6.962;2022-09-28T15:48:49;1.50;;;1.07;;
1062;SDS011;520;50.932;6.962;2022-09-28T15:51:24;1.97;;;1.20;;
1062;SDS011;520;50.932;6.962;2022-09-28T15:53:57;4.37;;;2.67;;
1062;SDS011;520;50.932;6.962;2022-09-28T15:56:29;1.70;;;1.57;;
1062;SDS011;520;50.932;6.962;2022-09-28T15:59:10;2.80;;;1.70;;
1062;SDS011;520;50.932;6.962;2022-09-28T16:01:48;2.30;;;1.87;;
1062;SDS011;520;50.932;6.962;2022-09-28T16:04:48;2.00;;;1.77;;
1062;SDS011;520;50.932;6.962;2022-09-28T16:09:52;3.20;;;1.60;;
1062;SDS011;520;50.932;6.962;2022-09-28T16:12:30;2.77;;;1.37;;
1062;SDS011;520;50.932;6.962;2022-09-28T16:15:12;4.20;;;1.80;;
1062;SDS011;520;50.932;6.962;2022-09-28T16:17:50;1.40;;;1.30;;
1062;SDS011;520;50.932;6.962;2022-09-28T16:20:27;2.37;;;1.67;;
1062;SDS011;520;50.932;6.962;2022-09-28T16:22:58;1.60;;;1.10;;
1062;SDS011;520;50.932;6.962;2022-09-28T16:25:31;3.80;;;1.20;;
1062;SDS011;520;50.932;6.962;2022-09-28T16:28:02;1.70;;;1.13;;
1062;SDS011;520;50.932;6.962;2022-09-28T16:30:30;4.33;;;1.50;;
1062;SDS011;520;50.932;6.962;2022-09-28T16:33:00;3.13;;;1.63;;
1062;SDS011;520;50.932;6.962;2022-09-28T16:35:29;2.57;;;1.57;;
1062;SDS011;520;50.932;6.962;2022-09-28T16:38:01;2.67;;;1.50;;
1062;SDS011;520;50.932;6.962;2022-09-28T16:40:40;2.63;;;1.20;;
1062;SDS011;520;50.932;6.962;2022-09-28T16:43:14;1.47;;;1.37;;
1062;SDS011;520;50.932;6.962;2022-09-28T16:45:45;1.57;;;1.20;;
1062;SDS011;520;50.932;6.962;2022-09-28T16:48:12;2.80;;;1.13;;
1062;SDS011;520;50.932;6.962;2022-09-28T16:50:44;1.67;;;1.37;;
1062;SDS011;520;50.932;6.962;2022-09-28T16:53:12;2.60;;;1.77;;
1062;SDS011;520;50.932;6.962;2022-09-28T16:55:59;1.53;;;1.27;;
1062;SDS011;520;50.932;6.962;2022-09-28T16:58:26;1.23;;;1.00;;
1062;SDS011;520;50.932;6.962;2022-09-28T17:00:54;3.13;;;1.87;;
1062;SDS011;520;50.932;6.962;2022-09-28T17:03:21;1.73;;;1.50;;
1062;SDS011;520;50.932;6.962;2022-09-28T17:05:51;2.23;;;1.90;;
1062;SDS011;520;50.932;6.962;2022-09-28T17:08:19;1.70;;;1.60;;
1062;SDS011;520;50.932;6.962;2022-09-28T17:10:54;2.17;;;1.53;;
1062;SDS011;520;50.932;6.962;2022-09-28T17:13:42;2.93;;;2.20;;
1062;SDS011;520;50.932;6.962;2022-09-28T17:16:14;2.83;;;2.53;;
1062;SDS011;520;50.932;6.962;2022-09-28T17:18:43;3.27;;;2.10;;
1062;SDS011;520;50.932;6.962;2022-09-28T17:21:13;3.50;;;2.00;;
1062;SDS011;520;50.932;6.962;2022-09-28T17:23:41;2.23;;;1.50;;
1062;SDS011;520;50.932;6.962;2022-09-28T17:26:16;2.37;;;1.63;;
1062;SDS011;520;50.932;6.962;2022-09-28T17:28:45;2.40;;;2.10;;
1062;SDS011;520;50.932;6.962;2022-09-28T17:31:13;2.83;;;1.90;;
1062;SDS011;520;50.932;6.962;2022-09-28T17:33:42;2.93;;;1.73;;
1062;SDS011;520;50.932;6.962;2022-09-28T17:36:12;2.33;;;1.50;;
1062;SDS011;520;50.932;6.962;2022-09-28T17:38:40;1.40;;;1.13;;
1062;SDS011;520;50.932;6.962;2022-09-28T17:41:09;1.33;;;1.23;;
1062;SDS011;520;50.932;6.962;2022-09-28T17:43:45;1.53;;;1.40;;
1062;SDS011;520;50.932;6.962;2022-09-28T17:46:16;1.97;;;1.60;;
1062;SDS011;520;50.932;6.962;2022-09-28T17:48:54;2.30;;;1.70;;
1062;SDS011;520;50.932;6.962;2022-09-28T17:51:28;2.53;;;1.93;;
1062;SDS011;520;50.932;6.962;2022-09-28T17:53:57;2.70;;;2.00;;
1062;SDS011;520;50.932;6.962;2022-09-28T17:56:29;4.80;;;2.50;;
1062;SDS011;520;50.932;6.962;2022-09-28T17:59:02;2.20;;;2.00;;
1062;SDS011;520;50.932;6.962;2022-09-28T18:01:31;2.40;;;1.60;;
1062;SDS011;520;50.932;6.962;2022-09-28T18:04:00;2.20;;;2.10;;
1062;SDS011;520;50.932;6.962;2022-09-28T18:06:28;4.77;;;2.10;;
1062;SDS011;520;50.932;6.962;2022-09-28T18:08:54;3.27;;;2.20;;
1062;SDS011;520;50.932;6.962;2022-09-28T18:11:21;3.47;;;2.30;;
1062;SDS011;520;50.932;6.962;2022-09-28T18:13:48;3.70;;;2.50;;
1062;SDS011;520;50.932;6.962;2022-09-28T18:16:14;2.40;;;2.20;;
1062;SDS011;520;50.932;6.962;2022-09-28T18:18:42;3.17;;;2.70;;
1062;SDS011;520;50.932;6.962;2022-09-28T18:21:08;2.40;;;2.20;;
1062;SDS011;520;50.932;6.962;2022-09-28T18:23:35;2.20;;;2.00;;
1062;SDS011;520;50.932;6.962;2022-09-28T18:26:04;1.97;;;1.87;;
1062;SDS011;520;50.932;6.962;2022-09-28T18:28:37;2.47;;;2.27;;
1062;SDS011;520;50.932;6.962;2022-09-28T18:31:08;2.30;;;1.90;;
1062;SDS011;520;50.932;6.962;2022-09-28T18:33:36;2.47;;;2.27;;
1062;SDS011;520;50.932;6.962;2022-09-28T18:36:04;4.37;;;3.07;;
1062;SDS011;520;50.932;6.962;2022-09-28T18:38:35;4.77;;;2.10;;
1062;SDS011;520;50.932;6.962;2022-09-28T18:41:09;2.47;;;2.27;;
1062;SDS011;520;50.932;6.962;2022-09-28T18:43:41;3.30;;;2.10;;
1062;SDS011;520;50.932;6.962;2022-09-28T18:46:08;2.53;;;2.33;;
1062;SDS011;520;50.932;6.962;2022-09-28T18:48:36;2.40;;;2.20;;